Time;durP1;ratioP1;P1;durP2;ratioP2;P2;SDS_P1;SDS_P2;PMS_P1;PMS_P2;Temp;Humidity;BMP_temperature;BMP_pressure;BME280_temperature;BME280_humidity;BME280_pressure;Samples;Min_cycle;Max_cycle;Signal;HPM_P1;HPM_P2
2023/08/29 00:01:15;;;;;;;2.65;1.30;;;23.50;50.00;;;;;;5034709;28;20025;-63
2023/08/29 00:03:43;;;;;;;3.38;1.50;;;24.00;49.40;;;;;;5034651;28;20018;-64
2023/08/29 00:06:10;;;;;;;3.05;1.60;;;23.70;49.50;;;;;;5034343;28;20025;-63
2023/08/29 00:08:38;;;;;;;2.55;1.60;;;23.60;49.60;;;;;;5036161;28;20356;-63
2023/08/29 00:11:05;;;;;;;2.80;1.50;;;23.70;49.40;;;;;;5035322;28;20325;-63
2023/08/29 00:13:33;;;;;;;2.05;1.60;;;23.10;49.00;;;;;;5034375;28;20021;-63
2023/08/29 00:16:00;;;;;;;1.75;1.35;;;23.00;48.70;;;;;;5034057;28;20029;-63
2023/08/29 00:18:28;;;;;;;3.75;1.73;;;23.70;49.20;;;;;;5034194;28;20120;-64
2023/08/29 00:20:55;;;;;;;2.75;1.55;;;23.70;47.60;;;;;;5033930;28;20570;-62
2023/08/29 00:23:23;;;;;;;2.80;1.63;;;24.10;47.50;;;;;;5034080;28;20465;-63
2023/08/29 00:25:53;;;;;;;2.60;1.50;;;23.20;47.40;;;;;;5034520;28;20029;-62
2023/08/29 00:28:21;;;;;;;1.88;1.40;;;24.10;47.40;;;;;;5035237;28;20446;-63
2023/08/29 00:30:48;;;;;;;3.55;1.50;;;24.50;45.20;;;;;;5034180;28;20065;-63
2023/08/29 00:33:16;;;;;;;2.40;1.52;;;24.40;45.60;;;;;;5034108;28;20147;-65
2023/08/29 00:35:44;;;;;;;2.72;1.30;;;24.00;46.90;;;;;;5034896;28;20021;-64
2023/08/29 00:38:12;;;;;;;1.98;1.33;;;24.00;46.00;;;;;;5033976;28;20039;-65
2023/08/29 00:40:39;;;;;;;2.20;1.40;;;24.10;46.10;;;;;;5034929;28;20375;-66
2023/08/29 00:43:07;;;;;;;4.85;1.40;;;24.30;44.90;;;;;;5033938;28;20527;-64
2023/08/29 00:45:37;;;;;;;3.17;1.50;;;24.20;43.40;;;;;;5033937;28;20109;-64
2023/08/29 00:48:08;;;;;;;3.58;1.60;;;23.80;45.30;;;;;;5033996;28;20045;-65
2023/08/29 00:50:36;;;;;;;3.20;1.40;;;23.30;45.00;;;;;;5035025;28;20447;-65
2023/08/29 00:53:06;;;;;;;2.35;1.30;;;23.00;45.50;;;;;;5034308;28;20116;-62
2023/08/29 00:55:35;;;;;;;2.15;1.33;;;23.30;45.70;;;;;;5035370;28;20444;-63
2023/08/29 00:58:03;;;;;;;2.45;1.48;;;23.60;43.70;;;;;;5034042;28;20053;-65
2023/08/29 01:00:32;;;;;;;2.60;1.20;;;23.50;44.60;;;;;;5017482;28;20112;-65
2023/08/29 01:03:01;;;;;;;2.17;1.30;;;23.80;44.20;;;;;;5051233;28;20047;-64
2023/08/29 01:05:28;;;;;;;3.08;1.20;;;24.10;43.40;;;;;;5033812;28;20029;-64
2023/08/29 01:07:59;;;;;;;2.75;1.27;;;24.60;42.20;;;;;;5034651;28;20025;-65
2023/08/29 01:11:07;;;;;;;2.75;1.30;;;25.00;42.20;;;;;;5034627;28;20032;-64
2023/08/29 01:13:52;;;;;;;2.55;1.52;;;24.20;41.50;;;;;;5034090;28;20037;-66
2023/08/29 01:16:25;;;;;;;2.38;1.25;;;23.70;44.00;;;;;;5034585;28;20083;-61
2023/08/29 01:18:54;;;;;;;4.40;1.20;;;24.30;42.50;;;;;;5033677;28;20025;-62
2023/08/29 01:21:36;;;;;;;2.15;1.27;;;24.60;42.20;;;;;;5033346;28;20080;-61
2023/08/29 01:24:18;;;;;;;4.20;1.25;;;24.50;42.60;;;;;;5034467;28;20100;-61
2023/08/29 01:26:46;;;;;;;;;;;25.40;41.30;;;;;;5018528;28;20033;-61
2023/08/29 01:29:15;;;;;;;2.05;1.45;;;25.00;41.20;;;;;;5034446;28;19909;-62
2023/08/29 01:31:43;;;;;;;3.47;1.30;;;25.10;40.80;;;;;;5033070;28;20029;-61
2023/08/29 01:34:12;;;;;;;2.53;1.40;;;25.50;40.10;;;;;;5034432;28;20497;-61
2023/08/29 01:36:43;;;;;;;2.05;1.20;;;25.30;41.20;;;;;;5036163;28;20029;-60
2023/08/29 01:39:11;;;;;;;3.88;1.25;;;25.20;40.40;;;;;;5038323;28;20112;-61
2023/08/29 01:41:38;;;;;;;1.40;0.95;;;25.10;39.60;;;;;;5037880;28;20025;-62
2023/08/29 01:44:09;;;;;;;1.95;1.02;;;25.30;39.70;;;;;;5037155;28;20025;-61
2023/08/29 01:46:37;;;;;;;1.50;0.93;;;25.90;38.90;;;;;;5036540;28;20029;-61
2023/08/29 01:49:04;;;;;;;1.40;1.10;;;25.80;38.40;;;;;;5036770;28;20447;-61
2023/08/29 01:51:40;;;;;;;1.45;1.10;;;25.80;38.60;;;;;;5038693;28;20064;-63
2023/08/29 01:54:11;;;;;;;1.70;1.13;;;25.70;37.90;;;;;;5036227;28;20145;-62
2023/08/29 01:56:43;;;;;;;1.40;0.90;;;25.90;38.30;;;;;;5036666;28;20111;-61
2023/08/29 01:59:10;;;;;;;1.77;1.05;;;26.00;36.70;;;;;;5037723;28;20030;-61
2023/08/29 02:01:39;;;;;;;2.85;1.25;;;26.10;36.80;;;;;;5036867;28;20053;-60
2023/08/29 02:04:07;;;;;;;2.08;1.13;;;26.00;38.50;;;;;;5036808;28;20026;-62
2023/08/29 02:06:35;;;;;;;3.15;1.35;;;25.30;36.90;;;;;;5036687;28;20471;-61
2023/08/29 02:09:03;;;;;;;2.75;1.17;;;25.60;37.00;;;;;;5036460;28;20047;-61
2023/08/29 02:11:31;;;;;;;2.22;1.20;;;26.40;35.90;;;;;;5036551;28;20494;-62
2023/08/29 02:13:58;;;;;;;2.25;1.00;;;26.10;36.10;;;;;;5037447;28;20029;-61
2023/08/29 02:16:26;;;;;;;1.73;1.10;;;25.20;37.50;;;;;;5037300;28;20014;-62
2023/08/29 02:18:54;;;;;;;1.70;1.02;;;25.50;35.80;;;;;;5036087;28;20057;-62
2023/08/29 02:21:21;;;;;;;3.55;1.10;;;25.70;37.30;;;;;;5036023;28;20081;-63
2023/08/29 02:23:49;;;;;;;2.08;1.10;;;26.10;36.20;;;;;;5036325;28;20120;-62
2023/08/29 02:26:16;;;;;;;2.38;1.02;;;26.70;35.70;;;;;;5037550;28;20021;-63
2023/08/29 02:28:44;;;;;;;2.20;1.05;;;26.20;35.00;;;;;;5035647;28;20026;-62
2023/08/29 02:31:13;;;;;;;3.22;1.10;;;26.30;36.10;;;;;;5035856;28;20105;-61
2023/08/29 02:33:40;;;;;;;3.08;1.10;;;26.60;35.30;;;;;;5037014;28;20040;-62
2023/08/29 02:36:08;;;;;;;1.90;1.10;;;26.90;34.30;;;;;;5037084;28;20030;-61
2023/08/29 02:38:35;;;;;;;1.90;1.13;;;27.10;34.90;;;;;;5036921;28;20025;-67
2023/08/29 02:41:03;;;;;;;1.55;1.08;;;28.00;34.80;;;;;;5036053;28;20448;-66
2023/08/29 02:43:31;;;;;;;3.17;1.23;;;28.40;32.70;;;;;;5036065;28;20029;-67
2023/08/29 02:45:59;;;;;;;2.78;0.95;;;27.90;34.00;;;;;;5037074;28;20386;-67
2023/08/29 02:48:27;;;;;;;1.33;1.02;;;27.60;34.90;;;;;;5036337;28;20452;-66
2023/08/29 02:50:55;;;;;;;2.63;1.10;;;27.10;34.00;;;;;;5036064;28;20083;-66
2023/08/29 02:53:23;;;;;;;2.38;1.10;;;26.30;35.10;;;;;;5036822;28;20546;-66
2023/08/29 02:55:53;;;;;;;2.10;1.30;;;26.50;34.90;;;;;;5037129;28;20444;-64
2023/08/29 02:58:20;;;;;;;3.30;1.13;;;26.60;36.60;;;;;;5035839;28;20033;-66
2023/08/29 03:00:54;;;;;;;1.60;1.20;;;26.90;35.10;;;;;;5036684;28;20079;-66
2023/08/29 03:03:22;;;;;;;3.08;1.20;;;27.30;35.40;;;;;;5036021;28;20075;-67
2023/08/29 03:06:00;;;;;;;2.15;1.05;;;27.70;33.80;;;;;;5035597;28;20056;-66
2023/08/29 03:08:27;;;;;;;1.60;1.08;;;26.90;34.10;;;;;;5036496;28;20029;-66
2023/08/29 03:10:55;;;;;;;2.60;1.13;;;27.20;34.50;;;;;;5036672;28;20029;-67
2023/08/29 03:13:23;;;;;;;1.85;1.10;;;27.00;33.10;;;;;;5036234;28;20108;-62
2023/08/29 03:15:50;;;;;;;3.42;1.20;;;26.50;34.60;;;;;;5034936;28;20022;-61
2023/08/29 03:18:18;;;;;;;3.88;1.60;;;27.30;33.40;;;;;;5036376;28;20388;-61
2023/08/29 03:20:46;;;;;;;1.67;1.25;;;28.10;32.60;;;;;;5035326;28;20095;-62
2023/08/29 03:23:13;;;;;;;2.67;1.20;;;28.20;32.20;;;;;;5036452;28;20021;-62
2023/08/29 03:25:41;;;;;;;1.48;1.02;;;28.00;32.80;;;;;;5035286;28;20022;-61
2023/08/29 03:28:08;;;;;;;2.63;1.05;;;27.90;32.70;;;;;;5035536;28;20041;-61
2023/08/29 03:30:35;;;;;;;1.65;1.20;;;27.80;33.00;;;;;;5036112;28;20033;-61
2023/08/29 03:33:03;;;;;;;2.35;1.20;;;27.70;32.50;;;;;;5035507;28;20025;-63
2023/08/29 03:35:30;;;;;;;1.90;1.05;;;28.10;32.50;;;;;;5035921;28;20360;-63
2023/08/29 03:37:59;;;;;;;1.90;1.10;;;28.30;32.40;;;;;;5035397;28;20017;-61
2023/08/29 03:40:26;;;;;;;2.05;1.10;;;28.20;32.20;;;;;;5036761;28;20351;-61
2023/08/29 03:42:54;;;;;;;1.60;1.00;;;28.20;32.90;;;;;;5035841;28;20018;-62
2023/08/29 03:45:21;;;;;;;2.47;1.00;;;27.70;32.30;;;;;;5035069;28;20048;-62
2023/08/29 03:47:49;;;;;;;1.63;1.10;;;27.70;32.70;;;;;;5034775;28;20026;-61
2023/08/29 03:50:17;;;;;;;2.50;1.23;;;27.80;32.60;;;;;;5035758;28;20029;-62
2023/08/29 03:52:44;;;;;;;1.38;0.98;;;28.10;32.30;;;;;;5035743;28;20033;-63
2023/08/29 03:55:13;;;;;;;2.17;1.20;;;28.70;32.30;;;;;;5034912;28;20017;-62
2023/08/29 03:57:41;;;;;;;1.75;1.10;;;29.30;31.80;;;;;;5034657;28;20092;-61
2023/08/29 04:00:10;;;;;;;3.38;1.20;;;29.60;30.10;;;;;;5033955;28;20471;-61
2023/08/29 04:02:39;;;;;;;1.90;1.10;;;29.40;30.50;;;;;;5034219;28;20072;-61
2023/08/29 04:05:14;;;;;;;2.10;1.20;;;28.60;31.70;;;;;;5035082;28;20037;-61
2023/08/29 04:07:42;;;;;;;2.33;1.23;;;28.30;32.30;;;;;;5034099;28;20029;-61
2023/08/29 04:10:11;;;;;;;3.25;1.20;;;28.90;32.50;;;;;;5034275;28;20033;-67
2023/08/29 04:12:38;;;;;;;3.10;1.30;;;27.90;32.10;;;;;;5033987;28;20398;-66
2023/08/29 04:15:07;;;;;;;2.10;1.20;;;27.70;32.20;;;;;;5033550;28;20021;-60
2023/08/29 04:17:40;;;;;;;4.65;1.23;;;27.60;32.50;;;;;;5033390;28;20381;-62
2023/08/29 04:20:12;;;;;;;2.40;1.10;;;27.60;33.70;;;;;;5034425;28;20053;-62
2023/08/29 04:22:40;;;;;;;2.00;1.00;;;27.80;32.40;;;;;;5035518;28;20367;-62
2023/08/29 04:25:08;;;;;;;1.55;1.05;;;27.90;32.40;;;;;;5034597;28;20060;-60
2023/08/29 04:27:37;;;;;;;2.25;1.20;;;27.60;32.00;;;;;;5034299;28;20112;-62
2023/08/29 04:30:06;;;;;;;2.35;1.10;;;27.90;33.30;;;;;;5033664;28;20029;-62
2023/08/29 04:32:37;;;;;;;2.08;1.15;;;28.00;32.00;;;;;;5033971;28;20026;-62
2023/08/29 04:35:08;;;;;;;1.40;1.15;;;26.90;33.10;;;;;;5034972;28;20040;-62
2023/08/29 04:37:36;;;;;;;1.83;1.10;;;28.10;31.30;;;;;;5033899;28;20022;-63
2023/08/29 04:40:07;;;;;;;1.63;1.00;;;28.20;31.20;;;;;;5033779;28;20056;-62
2023/08/29 04:42:37;;;;;;;3.08;1.30;;;28.10;31.30;;;;;;5033717;28;20068;-62
2023/08/29 04:45:05;;;;;;;3.45;1.20;;;28.40;30.60;;;;;;5034819;28;20057;-63
2023/08/29 04:47:34;;;;;;;3.05;1.30;;;28.80;30.40;;;;;;5033793;28;20032;-61
2023/08/29 04:50:01;;;;;;;1.65;1.15;;;29.00;30.00;;;;;;5033195;28;20086;-61
2023/08/29 04:52:29;;;;;;;2.35;1.10;;;29.10;31.20;;;;;;5034881;28;20025;-61
2023/08/29 04:54:56;;;;;;;1.90;1.00;;;28.20;31.00;;;;;;5034870;28;20107;-62
2023/08/29 04:57:24;;;;;;;1.83;1.13;;;28.20;31.30;;;;;;5033640;28;20051;-62
2023/08/29 04:59:52;;;;;;;2.53;1.15;;;28.40;30.70;;;;;;5033406;28;20018;-62
2023/08/29 05:02:19;;;;;;;1.77;1.10;;;29.00;31.30;;;;;;5033311;28;20033;-62
2023/08/29 05:04:47;;;;;;;1.98;1.10;;;29.20;31.20;;;;;;5033801;28;20490;-62
2023/08/29 05:07:15;;;;;;;1.52;1.17;;;29.40;29.60;;;;;;5033096;28;20034;-62
2023/08/29 05:09:43;;;;;;;1.90;1.20;;;29.70;29.80;;;;;;5033811;28;20033;-67
2023/08/29 05:12:11;;;;;;;2.28;1.13;;;29.60;29.90;;;;;;5036645;28;20451;-67
2023/08/29 05:14:39;;;;;;;1.52;1.20;;;28.80;30.00;;;;;;5038251;28;20052;-66
2023/08/29 05:17:09;;;;;;;3.30;1.27;;;28.70;30.30;;;;;;5037169;28;20025;-66
2023/08/29 05:19:36;;;;;;;2.00;1.20;;;28.20;31.30;;;;;;5037401;28;20022;-67
2023/08/29 05:22:04;;;;;;;2.38;1.25;;;27.70;31.50;;;;;;5037483;28;20043;-66
2023/08/29 05:24:32;;;;;;;1.33;0.98;;;27.60;31.50;;;;;;5037385;28;20037;-68
2023/08/29 05:27:00;;;;;;;2.25;1.20;;;27.20;32.50;;;;;;5037414;28;20049;-67
2023/08/29 05:29:27;;;;;;;2.28;1.20;;;26.90;33.50;;;;;;5037433;28;20075;-66
2023/08/29 05:31:55;;;;;;;2.20;1.13;;;26.50;33.40;;;;;;5037294;28;20025;-67
2023/08/29 05:34:22;;;;;;;2.80;1.17;;;26.30;34.50;;;;;;5037364;28;20030;-66
2023/08/29 05:36:51;;;;;;;2.88;1.10;;;25.90;33.30;;;;;;5036711;28;20022;-67
2023/08/29 05:39:19;;;;;;;1.88;1.20;;;25.20;35.00;;;;;;5037094;28;20021;-67
2023/08/29 05:41:47;;;;;;;4.38;1.20;;;25.40;35.30;;;;;;5037084;28;20037;-66
2023/08/29 05:44:14;;;;;;;2.40;1.20;;;25.40;34.90;;;;;;5037154;28;20111;-66
2023/08/29 05:46:42;;;;;;;2.25;1.15;;;25.30;35.10;;;;;;5037793;28;20022;-67
2023/08/29 05:49:10;;;;;;;4.10;1.20;;;25.20;36.10;;;;;;5037008;28;20029;-66
2023/08/29 05:51:37;;;;;;;2.65;1.20;;;25.20;36.10;;;;;;5036994;28;20053;-68
2023/08/29 05:54:05;;;;;;;2.00;1.00;;;25.30;36.60;;;;;;5037018;28;20018;-67
2023/08/29 05:56:33;;;;;;;2.08;1.40;;;25.30;35.60;;;;;;5036749;28;20029;-67
2023/08/29 05:59:00;;;;;;;1.50;1.20;;;25.20;36.90;;;;;;5036938;28;20051;-67
2023/08/29 06:01:28;;;;;;;2.10;1.20;;;25.00;40.40;;;;;;5036558;28;20080;-66
2023/08/29 06:03:55;;;;;;;3.25;1.48;;;24.70;41.50;;;;;;5036803;28;20045;-68
2023/08/29 06:06:23;;;;;;;3.25;1.50;;;24.50;43.10;;;;;;5036710;28;20533;-68
2023/08/29 06:08:51;;;;;;;1.60;1.20;;;25.10;42.70;;;;;;5037325;28;20035;-67
2023/08/29 06:11:18;;;;;;;2.65;1.40;;;27.90;38.40;;;;;;5037754;28;20053;-67
2023/08/29 06:13:46;;;;;;;3.50;1.50;;;29.00;36.70;;;;;;5036680;28;20447;-67
2023/08/29 06:16:13;;;;;;;2.72;1.40;;;29.30;35.70;;;;;;5036369;28;20021;-67
2023/08/29 06:18:41;;;;;;;2.00;1.42;;;28.80;36.70;;;;;;5036417;28;20064;-67
2023/08/29 06:21:08;;;;;;;2.50;1.52;;;27.90;37.90;;;;;;5036092;28;20049;-67
2023/08/29 06:23:36;;;;;;;2.15;1.40;;;27.90;38.50;;;;;;5036466;28;20025;-66
2023/08/29 06:26:04;;;;;;;3.67;1.40;;;29.10;36.90;;;;;;5036507;28;20444;-67
2023/08/29 06:28:33;;;;;;;3.55;1.40;;;28.80;36.40;;;;;;5036285;28;20070;-66
2023/08/29 06:31:09;;;;;;;4.15;1.67;;;28.30;36.90;;;;;;5035923;28;20029;-65
2023/08/29 06:33:38;;;;;;;2.72;1.77;;;28.10;37.90;;;;;;5036282;28;20025;-66
2023/08/29 06:36:05;;;;;;;3.95;1.48;;;28.60;37.80;;;;;;5036221;28;20060;-67
2023/08/29 06:38:34;;;;;;;2.90;1.83;;;28.80;38.00;;;;;;5036029;28;20041;-66
2023/08/29 06:41:03;;;;;;;2.50;1.60;;;28.30;38.90;;;;;;5036120;28;20036;-66
2023/08/29 06:43:30;;;;;;;3.90;1.70;;;27.00;41.00;;;;;;5036129;28;20056;-67
2023/08/29 06:45:58;;;;;;;4.25;1.67;;;24.90;44.90;;;;;;5035930;28;20025;-67
2023/08/29 06:48:25;;;;;;;3.50;2.05;;;24.10;46.90;;;;;;5035836;28;20056;-67
2023/08/29 06:50:53;;;;;;;3.58;1.70;;;23.50;48.30;;;;;;5035750;28;20498;-67
2023/08/29 06:53:22;;;;;;;3.15;1.80;;;23.10;50.00;;;;;;5035820;28;20091;-67
2023/08/29 06:55:49;;;;;;;2.72;1.75;;;22.80;50.90;;;;;;5035870;28;20075;-67
2023/08/29 06:58:17;;;;;;;2.15;1.80;;;22.60;51.60;;;;;;5035600;28;20028;-65
2023/08/29 07:00:44;;;;;;;2.90;1.65;;;22.40;52.30;;;;;;5036514;28;20045;-65
2023/08/29 07:03:12;;;;;;;3.70;1.80;;;22.20;53.30;;;;;;5036283;28;20136;-66
2023/08/29 07:05:39;;;;;;;3.85;1.90;;;22.10;54.10;;;;;;5035692;28;20048;-65
2023/08/29 07:08:07;;;;;;;5.18;2.25;;;22.00;54.10;;;;;;5036141;28;20029;-65
2023/08/29 07:10:34;;;;;;;4.13;2.00;;;21.90;55.10;;;;;;5036389;28;20071;-66
2023/08/29 07:13:03;;;;;;;4.43;2.10;;;21.80;55.90;;;;;;5036341;28;20078;-67
2023/08/29 07:15:31;;;;;;;3.17;2.15;;;21.60;56.90;;;;;;5035457;28;20052;-66
2023/08/29 07:17:59;;;;;;;3.63;2.38;;;21.40;57.70;;;;;;5035369;28;20080;-66
2023/08/29 07:20:26;;;;;;;5.47;2.65;;;21.40;58.00;;;;;;5035140;28;20052;-67
2023/08/29 07:22:54;;;;;;;6.85;4.03;;;21.20;58.50;;;;;;5035298;28;20133;-67
2023/08/29 07:25:41;;;;;;;6.45;3.00;;;21.00;58.90;;;;;;5035167;28;20026;-67
2023/08/29 07:28:10;;;;;;;5.72;2.85;;;20.90;59.40;;;;;;5035019;28;20021;-66
2023/08/29 07:30:57;;;;;;;4.82;2.75;;;20.80;59.80;;;;;;5035114;28;20029;-67
2023/08/29 07:33:25;;;;;;;4.32;2.72;;;20.60;60.60;;;;;;5034513;28;20507;-66
2023/08/29 07:35:53;;;;;;;5.78;3.35;;;20.60;61.00;;;;;;5034985;28;20025;-66
2023/08/29 07:38:21;;;;;;;4.57;2.78;;;20.50;61.50;;;;;;5034915;28;20120;-66
2023/08/29 07:40:48;;;;;;;4.32;3.03;;;20.40;61.90;;;;;;5034791;28;20018;-66
2023/08/29 07:43:17;;;;;;;5.28;2.85;;;20.30;62.60;;;;;;5034239;28;20466;-67
2023/08/29 07:45:46;;;;;;;5.47;3.38;;;20.20;62.90;;;;;;5034488;28;20076;-66
2023/08/29 07:48:13;;;;;;;4.85;3.20;;;20.10;63.20;;;;;;5034102;28;20112;-67
2023/08/29 07:50:41;;;;;;;7.03;4.22;;;20.10;63.80;;;;;;5034603;28;20026;-66
2023/08/29 07:53:08;;;;;;;8.80;4.07;;;19.90;64.20;;;;;;5034109;28;20483;-66
2023/08/29 07:55:35;;;;;;;10.38;4.65;;;19.80;64.40;;;;;;5034446;28;20448;-67
2023/08/29 07:58:03;;;;;;;6.93;4.05;;;19.90;64.30;;;;;;5034154;28;20057;-62
2023/08/29 08:00:30;;;;;;;9.85;4.18;;;19.80;64.70;;;;;;5034483;28;20040;-62
2023/08/29 08:03:00;;;;;;;10.43;4.57;;;19.60;65.00;;;;;;5034416;28;20048;-62
2023/08/29 08:05:27;;;;;;;7.88;3.85;;;19.50;65.70;;;;;;5034542;28;20036;-62
2023/08/29 08:07:56;;;;;;;5.47;3.97;;;19.60;65.60;;;;;;5034450;28;20030;-62
2023/08/29 08:10:23;;;;;;;7.47;3.63;;;19.50;65.90;;;;;;5033697;28;20426;-61
2023/08/29 08:12:51;;;;;;;5.72;3.45;;;19.50;66.10;;;;;;5034110;28;20041;-63
2023/08/29 08:15:20;;;;;;;9.77;3.90;;;19.50;66.20;;;;;;5034809;28;20045;-62
2023/08/29 08:17:48;;;;;;;6.28;3.72;;;19.40;66.60;;;;;;5033917;28;20022;-61
2023/08/29 08:20:16;;;;;;;7.43;3.92;;;19.20;67.10;;;;;;5034230;28;20049;-62
2023/08/29 08:22:43;;;;;;;6.97;3.53;;;19.10;67.60;;;;;;5034062;28;20452;-62
2023/08/29 08:25:11;;;;;;;7.68;3.97;;;19.00;67.80;;;;;;5033619;28;20060;-63
2023/08/29 08:27:42;;;;;;;7.18;3.58;;;18.90;68.10;;;;;;5035310;28;20036;-62
2023/08/29 08:30:11;;;;;;;6.88;3.72;;;19.00;68.30;;;;;;5034203;28;20620;-63
2023/08/29 08:32:39;;;;;;;6.80;3.50;;;19.10;68.20;;;;;;5033987;28;20037;-61
2023/08/29 08:35:08;;;;;;;9.70;3.45;;;18.90;68.00;;;;;;5035068;28;20039;-62
2023/08/29 08:37:36;;;;;;;7.60;3.53;;;18.90;68.30;;;;;;5034055;28;20052;-62
2023/08/29 08:40:11;;;;;;;5.00;3.50;;;18.90;68.00;;;;;;5033991;28;20033;-63
2023/08/29 08:42:44;;;;;;;4.82;3.70;;;18.90;68.20;;;;;;5034148;28;20452;-63
2023/08/29 08:45:12;;;;;;;7.38;3.75;;;18.80;68.60;;;;;;5033370;28;20124;-62
2023/08/29 08:47:40;;;;;;;6.90;4.43;;;18.80;68.80;;;;;;5034890;28;20033;-62
2023/08/29 08:50:09;;;;;;;7.47;4.35;;;18.80;68.70;;;;;;5034910;28;20108;-63
2023/08/29 08:52:38;;;;;;;7.55;4.65;;;18.80;68.40;;;;;;5033812;28;20345;-62
2023/08/29 08:55:07;;;;;;;9.35;4.32;;;18.90;68.40;;;;;;5033727;28;20017;-62
2023/08/29 08:57:34;;;;;;;7.82;4.22;;;18.90;68.60;;;;;;5033640;28;20049;-63
2023/08/29 09:00:02;;;;;;;7.00;4.45;;;18.80;68.40;;;;;;5033850;28;20505;-63
2023/08/29 09:02:32;;;;;;;9.15;5.57;;;18.80;68.70;;;;;;5033896;28;20037;-63
2023/08/29 09:05:00;;;;;;;8.65;5.53;;;18.70;68.70;;;;;;5033682;28;20464;-64
2023/08/29 09:07:27;;;;;;;7.95;5.45;;;18.80;68.60;;;;;;5033949;28;20117;-62
2023/08/29 09:10:09;;;;;;;8.13;5.18;;;18.70;69.00;;;;;;5034747;28;20395;-62
2023/08/29 09:12:47;;;;;;;10.27;5.63;;;18.70;69.20;;;;;;5033805;28;20117;-63
2023/08/29 09:15:16;;;;;;;7.97;6.10;;;18.70;69.40;;;;;;5033868;28;20112;-63
2023/08/29 09:17:52;;;;;;;9.82;6.32;;;18.60;69.50;;;;;;5033668;28;20029;-62
2023/08/29 09:20:22;;;;;;;11.10;6.75;;;18.60;69.40;;;;;;5017322;28;20057;-62
2023/08/29 09:22:50;;;;;;;8.90;6.72;;;18.70;69.20;;;;;;5033768;28;20080;-63
2023/08/29 09:25:18;;;;;;;10.57;6.68;;;18.60;69.50;;;;;;5033770;28;20025;-62
2023/08/29 09:27:48;;;;;;;9.70;6.78;;;18.60;69.60;;;;;;5033389;28;20040;-63
2023/08/29 09:30:18;;;;;;;9.57;6.95;;;18.60;69.50;;;;;;5034402;28;20359;-62
2023/08/29 09:32:51;;;;;;;9.20;6.60;;;18.70;69.30;;;;;;5034515;28;20448;-63
2023/08/29 09:35:24;;;;;;;9.60;6.97;;;18.70;69.30;;;;;;5034651;28;20026;-62
2023/08/29 09:37:55;;;;;;;12.70;7.25;;;18.70;69.30;;;;;;5033527;28;20022;-62
2023/08/29 09:40:23;;;;;;;8.55;5.72;;;18.60;69.80;;;;;;5033444;28;20068;-62
2023/08/29 09:43:03;;;;;;;9.15;5.47;;;18.60;70.00;;;;;;5033633;28;20108;-61
2023/08/29 09:45:31;;;;;;;8.57;5.22;;;18.60;70.20;;;;;;5017762;28;20033;-62
2023/08/29 09:48:06;;;;;;;9.10;5.15;;;18.50;70.40;;;;;;5029951;28;20030;-62
2023/08/29 09:50:34;;;;;;;9.02;5.55;;;18.50;70.50;;;;;;5033998;28;20040;-64
2023/08/29 09:53:03;;;;;;;8.82;4.70;;;18.50;70.60;;;;;;5033393;28;20029;-63
2023/08/29 09:55:44;;;;;;;6.40;4.63;;;18.50;70.70;;;;;;5034425;28;20121;-62
2023/08/29 09:58:19;;;;;;;12.85;4.65;;;18.50;70.60;;;;;;5034736;28;20052;-62
2023/08/29 10:00:47;;;;;;;8.98;4.43;;;18.50;70.70;;;;;;5037143;28;20386;-63
2023/08/29 10:03:17;;;;;;;8.05;3.40;;;18.50;70.60;;;;;;5036928;28;20025;-63
2023/08/29 10:05:45;;;;;;;9.32;3.65;;;18.50;71.10;;;;;;5036886;28;20025;-63
2023/08/29 10:08:38;;;;;;;5.90;3.55;;;18.40;71.30;;;;;;5036803;28;20029;-63
2023/08/29 10:11:07;;;;;;;6.72;3.45;;;18.40;71.60;;;;;;5037753;28;20034;-62
2023/08/29 10:13:35;;;;;;;6.32;3.28;;;18.40;71.50;;;;;;5037707;28;20022;-64
2023/08/29 10:16:05;;;;;;;7.65;3.58;;;18.40;71.60;;;;;;5036781;28;20025;-63
2023/08/29 10:18:34;;;;;;;7.35;3.05;;;18.30;71.70;;;;;;5037505;28;20064;-62
2023/08/29 10:21:04;;;;;;;5.35;3.40;;;18.40;71.80;;;;;;5033036;28;20519;-63
2023/08/29 10:23:33;;;;;;;7.25;3.35;;;18.40;71.50;;;;;;5020696;28;20041;-62
2023/08/29 10:26:02;;;;;;;7.30;3.47;;;18.40;71.60;;;;;;5036513;28;20436;-62
2023/08/29 10:28:31;;;;;;;6.57;3.17;;;18.50;71.60;;;;;;5019785;28;20033;-62
2023/08/29 10:31:02;;;;;;;4.60;3.03;;;18.50;71.70;;;;;;5035969;28;20025;-63
2023/08/29 10:33:31;;;;;;;6.25;3.03;;;18.40;71.80;;;;;;5019947;28;20149;-63
2023/08/29 10:36:01;;;;;;;7.13;3.38;;;18.30;72.10;;;;;;5035962;28;20115;-63
2023/08/29 10:38:38;;;;;;;6.90;3.80;;;18.20;72.10;;;;;;5037196;28;20072;-63
2023/08/29 10:41:10;;;;;;;5.43;3.22;;;18.20;72.00;;;;;;5036289;28;20026;-62
2023/08/29 10:43:38;;;;;;;5.90;3.25;;;18.20;72.20;;;;;;5036287;28;20025;-61
2023/08/29 10:46:15;;;;;;;5.43;3.63;;;18.20;72.40;;;;;;5037126;28;20048;-62
2023/08/29 10:48:43;;;;;;;6.85;3.40;;;18.10;72.40;;;;;;5036084;28;20036;-63
2023/08/29 10:51:17;;;;;;;6.70;3.78;;;18.10;72.70;;;;;;5036108;28;20371;-63
2023/08/29 10:53:53;;;;;;;6.13;3.20;;;18.00;72.30;;;;;;5035924;28;20034;-63
2023/08/29 10:56:39;;;;;;;10.70;4.20;;;17.90;73.10;;;;;;5035920;28;20025;-63
2023/08/29 10:59:06;;;;;;;6.15;4.18;;;17.80;73.40;;;;;;5021600;28;20076;-62
2023/08/29 11:01:34;;;;;;;7.25;3.65;;;17.60;74.10;;;;;;5036847;28;20108;-63
2023/08/29 11:04:12;;;;;;;7.05;4.03;;;17.60;74.30;;;;;;5035798;28;20037;-62
2023/08/29 11:06:54;;;;;;;8.90;4.05;;;17.60;74.30;;;;;;5035764;28;20044;-63
2023/08/29 11:09:24;;;;;;;5.95;4.03;;;17.60;74.00;;;;;;5036428;28;20061;-62
2023/08/29 11:12:12;;;;;;;5.85;3.85;;;17.60;74.10;;;;;;5035534;28;20033;-63
2023/08/29 11:14:56;;;;;;;5.25;4.00;;;17.50;74.80;;;;;;5035654;28;20077;-62
2023/08/29 11:17:25;;;;;;;6.40;3.90;;;17.30;75.00;;;;;;5035567;28;20025;-62
2023/08/29 11:19:58;;;;;;;6.25;4.00;;;17.30;75.10;;;;;;5018852;28;20032;-63
2023/08/29 11:22:29;;;;;;;6.63;3.95;;;17.20;75.50;;;;;;5036422;28;20041;-62
2023/08/29 11:24:58;;;;;;;10.65;4.57;;;17.10;75.40;;;;;;5035420;28;20030;-62
2023/08/29 11:27:28;;;;;;;9.15;4.60;;;17.10;76.00;;;;;;5035452;28;20026;-62
2023/08/29 11:29:59;;;;;;;9.68;5.07;;;17.10;76.00;;;;;;5036550;28;20041;-62
2023/08/29 11:32:29;;;;;;;13.35;5.45;;;17.10;75.70;;;;;;5019376;28;20026;-62
2023/08/29 11:34:57;;;;;;;11.15;5.30;;;17.00;75.80;;;;;;5035195;28;20025;-62
2023/08/29 11:37:25;;;;;;;12.88;6.35;;;16.70;77.10;;;;;;5035085;28;20117;-63
2023/08/29 11:39:53;;;;;;;12.70;7.22;;;16.60;77.30;;;;;;5035806;28;20079;-62
2023/08/29 11:42:22;;;;;;;12.30;7.07;;;16.60;77.00;;;;;;5034879;28;20033;-63
2023/08/29 11:44:50;;;;;;;7.25;4.93;;;16.60;77.60;;;;;;5034872;28;20493;-62
2023/08/29 11:47:17;;;;;;;7.93;5.00;;;16.50;77.50;;;;;;5034996;28;20358;-63
2023/08/29 11:49:49;;;;;;;8.40;4.75;;;16.40;76.80;;;;;;5034851;28;20109;-62
2023/08/29 11:52:20;;;;;;;7.47;5.25;;;16.30;77.60;;;;;;5034930;28;20026;-63
2023/08/29 11:54:53;;;;;;;10.85;5.32;;;16.20;78.10;;;;;;5018404;28;20040;-62
2023/08/29 11:57:21;;;;;;;9.82;5.38;;;16.10;78.80;;;;;;5034692;28;20419;-63
2023/08/29 11:59:52;;;;;;;7.72;5.22;;;16.10;78.60;;;;;;5034427;28;20044;-62
2023/08/29 12:02:23;;;;;;;7.82;4.88;;;16.00;78.80;;;;;;5035555;28;20423;-62
2023/08/29 12:04:58;;;;;;;9.25;4.97;;;15.90;79.30;;;;;;5034798;28;20471;-63
2023/08/29 12:07:32;;;;;;;8.07;4.63;;;15.90;79.20;;;;;;5035623;28;20029;-61
2023/08/29 12:10:13;;;;;;;7.20;4.57;;;15.90;78.10;;;;;;5018275;28;20033;-63
2023/08/29 12:12:41;;;;;;;8.80;4.68;;;15.60;79.20;;;;;;5034511;28;20035;-63
2023/08/29 12:15:11;;;;;;;7.70;5.22;;;15.50;79.80;;;;;;5034573;28;20083;-63
2023/08/29 12:17:43;;;;;;;7.65;5.00;;;15.50;80.10;;;;;;5034560;28;20470;-62
2023/08/29 12:20:14;;;;;;;9.23;5.00;;;15.50;80.00;;;;;;5033633;28;20057;-63
2023/08/29 12:22:47;;;;;;;6.55;4.30;;;15.40;80.30;;;;;;5035390;28;20075;-61
2023/08/29 12:25:15;;;;;;;8.23;5.05;;;15.30;80.80;;;;;;5018137;28;20034;-63
2023/08/29 12:27:46;;;;;;;10.80;5.03;;;15.30;80.80;;;;;;5035274;28;20375;-62
2023/08/29 12:30:16;;;;;;;8.88;4.80;;;15.30;80.60;;;;;;5034260;28;20375;-62
2023/08/29 12:32:46;;;;;;;8.77;5.07;;;15.10;81.20;;;;;;5034951;28;20420;-63
2023/08/29 12:35:16;;;;;;;8.70;5.70;;;15.20;81.10;;;;;;5017986;28;20037;-63
2023/08/29 12:37:44;;;;;;;7.93;5.20;;;15.20;80.90;;;;;;5035187;28;20062;-63
2023/08/29 12:40:12;;;;;;;9.10;5.40;;;15.20;80.70;;;;;;5034212;28;20021;-62
2023/08/29 12:42:42;;;;;;;11.18;6.05;;;15.20;80.50;;;;;;5034330;28;20464;-62
2023/08/29 12:45:10;;;;;;;6.90;5.07;;;15.30;80.50;;;;;;5034260;28;20044;-61
2023/08/29 12:47:38;;;;;;;8.45;4.88;;;15.20;80.30;;;;;;5034181;28;20026;-62
2023/08/29 12:50:06;;;;;;;7.90;5.07;;;15.10;80.10;;;;;;5034061;28;20052;-62
2023/08/29 12:52:34;;;;;;;7.68;5.32;;;14.90;80.90;;;;;;5034051;28;20025;-62
2023/08/29 12:55:01;;;;;;;7.80;5.28;;;14.70;81.20;;;;;;5035011;28;20033;-62
2023/08/29 12:57:29;;;;;;;9.38;5.80;;;14.70;81.60;;;;;;5033996;28;20053;-62